Time;durP1;ratioP1;P1;durP2;ratioP2;P2;SDS_P1;SDS_P2;PMS_P1;PMS_P2;Temp;Humidity;BMP_temperature;BMP_pressure;BME280_temperature;BME280_humidity;BME280_pressure;Samples;Min_cycle;Max_cycle;Signal;HPM_P1;HPM_P2
2022/07/28 00:00:51;;;;;;;4.93;2.97;;;;;;;19.53;55.38;156382.16;5090091;28;20516;-76
2022/07/28 00:03:18;;;;;;;3.60;3.30;;;;;;;19.48;55.36;156369.13;5092030;28;20441;-76
2022/07/28 00:05:45;;;;;;;5.90;3.30;;;;;;;19.51;55.59;156378.28;5092990;28;20492;-76
2022/07/28 00:08:12;;;;;;;3.97;3.20;;;;;;;19.44;56.15;156361.31;5106516;28;20451;-76
2022/07/28 00:10:39;;;;;;;3.27;2.97;;;;;;;19.42;55.63;156356.09;5090181;28;20780;-76
2022/07/28 00:13:07;;;;;;;3.87;2.67;;;;;;;19.39;56.00;156346.97;5082090;28;20424;-76
2022/07/28 00:15:34;;;;;;;3.00;2.70;;;;;;;19.29;56.38;156320.84;5091269;28;20528;-76
2022/07/28 00:18:01;;;;;;;4.40;2.87;;;;;;;19.22;56.82;156303.88;5090724;28;20516;-76
2022/07/28 00:20:29;;;;;;;3.10;2.80;;;;;;;19.23;56.59;156306.53;5089431;28;20448;-76
2022/07/28 00:22:56;;;;;;;3.67;2.80;;;;;;;19.22;56.95;156302.63;5090436;28;20916;-76
2022/07/28 00:25:22;;;;;;;2.77;2.43;;;;;;;19.20;56.93;156298.69;5090501;28;20733;-76
2022/07/28 00:27:49;;;;;;;3.40;3.10;;;;;;;19.22;57.12;156303.88;5088846;28;20539;-76
2022/07/28 00:30:17;;;;;;;4.70;2.83;;;;;;;19.20;56.92;156298.69;5106589;28;20484;-76
2022/07/28 00:32:45;;;;;;;3.50;2.73;;;;;;;19.15;56.72;156285.66;5106639;28;20436;-76
2022/07/28 00:35:12;;;;;;;2.90;2.60;;;;;;;19.13;56.63;156280.47;5106864;28;20969;-76
2022/07/28 00:37:39;;;;;;;5.30;2.87;;;;;;;19.11;56.64;156273.94;5072809;28;20512;-76
2022/07/28 00:40:07;;;;;;;4.20;3.07;;;;;;;19.08;56.94;156267.44;5090288;28;20437;-76
2022/07/28 00:42:33;;;;;;;3.60;3.30;;;;;;;18.97;57.19;156238.75;5072121;28;20480;-76
2022/07/28 00:45:00;;;;;;;3.40;2.80;;;;;;;18.90;57.44;156220.53;5093864;28;20524;-76
2022/07/28 00:47:28;;;;;;;3.00;2.63;;;;;;;18.91;57.44;156221.78;5090455;28;20433;-76
2022/07/28 00:49:55;;;;;;;3.43;2.90;;;;;;;18.91;57.57;156223.09;5089860;28;20444;-76
2022/07/28 00:52:22;;;;;;;5.73;3.30;;;;;;;18.77;57.81;156186.66;5088535;28;20931;-76
2022/07/28 00:54:49;;;;;;;3.40;3.10;;;;;;;18.73;57.93;156176.22;5090027;28;20506;-76
2022/07/28 00:57:16;;;;;;;6.83;3.40;;;;;;;18.71;57.79;156171.00;5089821;28;20534;-76
2022/07/28 00:59:43;;;;;;;3.20;2.83;;;;;;;18.67;57.82;156161.88;5089782;28;20507;-76
2022/07/28 01:02:09;;;;;;;4.17;2.80;;;;;;;18.60;58.38;156142.34;5089054;28;20475;-76
2022/07/28 01:04:37;;;;;;;4.53;2.70;;;;;;;18.57;58.52;156134.53;5090623;28;20980;-76
2022/07/28 01:07:19;;;;;;;3.77;3.43;;;;;;;18.58;58.51;156137.13;5088789;28;20445;-76
2022/07/28 01:09:53;;;;;;;5.70;3.37;;;;;;;18.52;58.26;156122.81;5090188;28;20425;-76
2022/07/28 01:12:27;;;;;;;4.80;2.67;;;;;;;18.46;58.70;156105.81;5098875;28;20449;-76
2022/07/28 01:15:03;;;;;;;3.53;3.10;;;;;;;18.49;58.77;156113.66;5106594;28;20476;-76
2022/07/28 01:17:36;;;;;;;3.53;3.07;;;;;;;18.47;58.77;156108.44;5107250;28;20943;-76
2022/07/28 01:20:10;;;;;;;3.83;3.30;;;;;;;18.42;58.87;156096.72;5088542;28;20453;-76
2022/07/28 01:22:40;;;;;;;3.20;2.90;;;;;;;18.48;58.45;156111.09;5090524;28;20457;-76
2022/07/28 01:25:16;;;;;;;3.80;3.03;;;;;;;18.41;59.29;156092.78;5087209;28;20453;-76
2022/07/28 01:27:53;;;;;;;2.97;2.67;;;;;;;18.49;59.48;156114.97;5090754;28;20955;-76
2022/07/28 01:30:31;;;;;;;3.23;2.93;;;;;;;18.47;59.12;156108.44;5089704;28;20535;-76
2022/07/28 01:33:02;;;;;;;3.87;3.50;;;;;;;18.51;58.91;156120.19;5091928;28;20531;-76
2022/07/28 01:35:32;;;;;;;3.17;2.87;;;;;;;18.45;59.25;156103.22;5093101;28;20444;-76
2022/07/28 01:38:01;;;;;;;5.03;3.50;;;;;;;18.42;59.38;156095.41;5094021;28;20418;-76
2022/07/28 01:40:31;;;;;;;3.50;3.20;;;;;;;18.42;59.03;156095.41;5109874;28;20451;-76
2022/07/28 01:43:00;;;;;;;5.00;3.60;;;;;;;18.36;59.50;156079.75;5093032;28;20461;-76
2022/07/28 01:45:29;;;;;;;4.13;3.33;;;;;;;18.37;59.63;156082.38;5093034;28;20831;-76
2022/07/28 01:47:59;;;;;;;4.17;3.10;;;;;;;18.30;59.75;156064.13;5093681;28;20523;-76
2022/07/28 01:50:26;;;;;;;4.23;3.53;;;;;;;18.19;59.70;156038.09;5093982;28;20510;-76
2022/07/28 01:52:54;;;;;;;5.43;3.27;;;;;;;18.13;59.70;156022.50;5108875;28;20480;-76
2022/07/28 01:55:22;;;;;;;3.50;3.17;;;;;;;18.08;60.36;156009.41;5090256;28;20468;-76
2022/07/28 01:57:50;;;;;;;3.40;3.10;;;;;;;18.05;60.19;156000.34;5092747;28;20900;-76
2022/07/28 02:00:18;;;;;;;9.57;3.60;;;;;;;18.03;60.49;155996.41;5094120;28;20437;-76
2022/07/28 02:02:47;;;;;;;4.37;3.00;;;;;;;17.98;59.90;155983.38;5108913;28;20561;-76
2022/07/28 02:05:17;;;;;;;2.63;2.43;;;;;;;17.94;60.56;155973.00;5092935;28;20429;-76
2022/07/28 02:07:44;;;;;;;3.87;3.50;;;;;;;17.96;60.66;155978.19;5092079;28;20483;-76
2022/07/28 02:10:12;;;;;;;3.67;3.37;;;;;;;17.98;60.49;155982.06;5092268;28;20445;-76
2022/07/28 02:12:39;;;;;;;4.10;2.93;;;;;;;17.96;60.17;155976.88;5099513;28;20437;-76
2022/07/28 02:15:08;;;;;;;3.33;3.03;;;;;;;18.00;60.59;155987.31;5094263;28;20844;-76
2022/07/28 02:17:35;;;;;;;4.73;3.30;;;;;;;17.99;60.56;155986.00;5093961;28;20532;-76
2022/07/28 02:20:05;;;;;;;5.20;3.53;;;;;;;17.94;60.70;155971.69;5093481;28;20429;-76
2022/07/28 02:22:32;;;;;;;3.90;3.40;;;;;;;17.85;60.68;155949.53;5089640;28;20572;-76
2022/07/28 02:24:59;;;;;;;3.70;3.40;;;;;;;17.82;61.01;155940.44;5091807;28;20520;-76
2022/07/28 02:27:34;;;;;;;5.50;4.30;;;;;;;17.75;60.97;155923.50;5093165;28;20464;-76
2022/07/28 02:30:04;;;;;;;3.77;3.37;;;;;;;17.69;61.31;155906.56;5093074;28;20474;-76
2022/07/28 02:32:38;;;;;;;3.73;3.40;;;;;;;17.61;61.80;155888.34;5090550;28;20524;-75
2022/07/28 02:35:09;;;;;;;3.53;3.10;;;;;;;17.54;62.14;155868.84;5093812;28;20523;-76
2022/07/28 02:37:38;;;;;;;3.93;3.63;;;;;;;17.51;62.32;155862.28;5093745;28;20421;-76
2022/07/28 02:40:10;;;;;;;4.37;3.67;;;;;;;17.49;62.29;155857.09;5091046;28;20532;-76
2022/07/28 02:42:38;;;;;;;3.53;3.03;;;;;;;17.49;62.72;155855.78;5072852;28;20511;-76
2022/07/28 02:45:06;;;;;;;3.47;3.17;;;;;;;17.47;62.46;155850.56;5088561;28;20440;-76
2022/07/28 02:47:39;;;;;;;4.10;3.30;;;;;;;17.47;62.65;155850.56;5092774;28;20421;-76
2022/07/28 02:50:07;;;;;;;5.30;3.97;;;;;;;17.47;62.31;155851.84;5091288;28;20836;-76
2022/07/28 02:52:35;;;;;;;4.13;3.50;;;;;;;17.48;62.73;155853.16;5093019;28;20448;-76
2022/07/28 02:55:02;;;;;;;3.40;3.10;;;;;;;17.45;62.86;155845.34;5092211;28;20476;-76
2022/07/28 02:57:30;;;;;;;5.27;3.20;;;;;;;17.48;62.56;155853.16;5092744;28;20543;-76
2022/07/28 02:59:58;;;;;;;7.53;3.80;;;;;;;17.45;62.91;155845.34;5090716;28;20488;-75
2022/07/28 03:02:25;;;;;;;4.80;3.20;;;;;;;17.37;62.74;155824.50;5092950;28;20457;-76
2022/07/28 03:05:00;;;;;;;3.70;3.40;;;;;;;17.36;62.71;155821.94;5092472;28;20421;-76
2022/07/28 03:07:29;;;;;;;6.93;3.47;;;;;;;17.38;62.81;155827.13;5092215;28;20413;-76
2022/07/28 03:09:56;;;;;;;4.43;3.77;;;;;;;17.43;63.13;155841.44;5091434;28;20442;-76
2022/07/28 03:12:23;;;;;;;3.60;3.30;;;;;;;17.44;63.50;155842.75;5074737;28;20927;-76
2022/07/28 03:14:50;;;;;;;4.53;3.57;;;;;;;17.34;62.96;155816.72;5093005;28;20794;-76
2022/07/28 03:17:18;;;;;;;3.23;2.97;;;;;;;17.30;63.54;155806.28;5092819;28;21011;-76
2022/07/28 03:19:45;;;;;;;3.10;2.80;;;;;;;17.27;63.64;155798.47;5090679;28;20453;-75
2022/07/28 03:22:11;;;;;;;3.70;3.40;;;;;;;17.22;63.76;155785.47;5091031;28;20583;-75
2022/07/28 03:24:42;;;;;;;3.43;3.17;;;;;;;17.20;63.96;155781.59;5092629;28;20425;-76
2022/07/28 03:27:13;;;;;;;4.40;3.33;;;;;;;17.23;64.24;155788.09;5090851;28;20445;-76
2022/07/28 03:29:41;;;;;;;3.87;3.57;;;;;;;17.38;63.51;155828.44;5090335;28;20529;-75
2022/07/28 03:32:08;;;;;;;3.40;3.10;;;;;;;17.36;63.96;155821.94;5093331;28;20762;-75
2022/07/28 03:34:35;;;;;;;3.50;2.80;;;;;;;17.35;63.46;155819.31;5091397;28;20456;-75
2022/07/28 03:37:06;;;;;;;3.80;3.40;;;;;;;17.27;64.01;155798.47;5090967;28;20481;-75
2022/07/28 03:39:37;;;;;;;3.30;3.00;;;;;;;17.12;64.62;155760.78;5071869;28;20499;-76
2022/07/28 03:42:05;;;;;;;3.77;3.23;;;;;;;17.11;64.76;155758.16;5071883;28;20496;-75
2022/07/28 03:44:33;;;;;;;4.00;3.60;;;;;;;17.14;64.76;155764.66;5091009;28;20433;-75
2022/07/28 03:47:00;;;;;;;3.90;3.50;;;;;;;17.19;64.89;155778.97;5091138;28;20433;-76
2022/07/28 03:49:26;;;;;;;5.00;3.43;;;;;;;17.22;64.44;155785.47;5090113;28;20536;-76
2022/07/28 03:51:53;;;;;;;4.30;3.63;;;;;;;17.13;64.89;155763.34;5092812;28;20433;-76
2022/07/28 03:54:20;;;;;;;5.07;3.50;;;;;;;17.13;65.04;155762.06;5091161;28;20647;-75
2022/07/28 03:56:46;;;;;;;4.47;4.00;;;;;;;17.07;65.34;155746.44;5091204;28;20453;-75
2022/07/28 03:59:14;;;;;;;4.23;3.30;;;;;;;17.12;64.72;155759.47;5089601;28;20579;-75
2022/07/28 04:01:41;;;;;;;4.20;3.80;;;;;;;17.00;65.50;155729.50;5097800;28;20515;-75
2022/07/28 04:04:08;;;;;;;3.93;3.53;;;;;;;17.02;65.50;155736.00;5128654;27;20448;-75
2022/07/28 04:06:35;;;;;;;3.57;3.27;;;;;;;16.98;65.28;155725.63;5097589;28;20495;-75
2022/07/28 04:09:01;;;;;;;4.83;3.53;;;;;;;16.99;65.69;155726.94;5073344;28;20441;-76
2022/07/28 04:11:28;;;;;;;6.40;4.40;;;;;;;16.98;65.84;155725.63;5092066;28;20535;-75
2022/07/28 04:13:55;;;;;;;4.23;3.83;;;;;;;16.91;65.42;155706.13;5090646;28;20433;-76
2022/07/28 04:16:23;;;;;;;4.17;3.77;;;;;;;16.88;65.64;155699.63;5089451;28;20556;-75
2022/07/28 04:18:50;;;;;;;6.07;4.00;;;;;;;16.85;65.79;155691.81;5089346;28;20441;-76
2022/07/28 04:21:17;;;;;;;5.53;3.70;;;;;;;16.83;66.02;155686.59;5106751;28;20481;-76
2022/07/28 04:23:43;;;;;;;3.70;3.40;;;;;;;16.87;65.66;155697.00;5090779;28;20459;-75
2022/07/28 04:26:10;;;;;;;4.37;3.50;;;;;;;16.91;66.23;155706.13;5088603;28;20467;-75
2022/07/28 04:28:37;;;;;;;4.00;3.60;;;;;;;16.92;66.31;155710.00;5091689;28;20451;-75
2022/07/28 04:31:04;;;;;;;4.50;3.60;;;;;;;16.97;65.61;155723.00;5091772;28;20437;-76
2022/07/28 04:33:32;;;;;;;6.93;3.97;;;;;;;16.97;65.87;155723.00;5091557;28;20976;-75
2022/07/28 04:36:00;;;;;;;4.47;3.33;;;;;;;16.93;66.18;155712.63;5090481;28;20546;-75
2022/07/28 04:38:27;;;;;;;4.40;3.60;;;;;;;16.95;66.21;155717.81;5089394;28;20441;-75
2022/07/28 04:40:54;;;;;;;4.00;3.70;;;;;;;17.00;66.18;155730.81;5091025;28;20487;-75
2022/07/28 04:43:21;;;;;;;4.20;3.70;;;;;;;17.15;66.10;155767.28;5091061;28;20504;-75
2022/07/28 04:45:49;;;;;;;4.00;3.50;;;;;;;17.19;65.82;155777.66;5105888;28;21157;-75
2022/07/28 04:48:16;;;;;;;3.50;3.20;;;;;;;17.24;65.64;155790.66;5089943;28;20954;-76
2022/07/28 04:50:45;;;;;;;4.60;3.97;;;;;;;17.32;65.67;155811.50;5090872;28;20915;-76
2022/07/28 04:53:35;;;;;;;4.70;4.23;;;;;;;17.44;65.85;155842.75;5091938;28;20425;-85
2022/07/28 04:56:10;;;;;;;6.63;3.80;;;;;;;17.71;64.48;155913.13;5089682;28;20457;-76
2022/07/28 04:58:51;;;;;;;4.13;3.70;;;;;;;17.87;64.47;155954.72;5072184;28;20508;-85
2022/07/28 05:01:46;;;;;;;5.53;3.80;;;;;;;17.96;63.91;155978.19;5071915;28;20838;-76
2022/07/28 05:04:44;;;;;;;4.33;3.43;;;;;;;18.12;63.55;156018.56;5089489;28;20449;-85
2022/07/28 05:07:44;;;;;;;5.07;3.70;;;;;;;18.24;63.89;156049.84;5068442;28;20944;-76
2022/07/28 05:10:51;;;;;;;3.87;3.57;;;;;;;18.49;62.67;156113.66;5075722;28;20456;-76
2022/07/28 05:13:32;;;;;;;4.93;4.00;;;;;;;18.65;61.75;156156.66;5075534;28;20430;-85
2022/07/28 05:16:11;;;;;;;4.73;4.33;;;;;;;18.72;61.59;156174.91;5060617;28;20444;-85
2022/07/28 05:19:21;;;;;;;4.20;3.80;;;;;;;18.70;61.85;156169.69;5074720;28;20429;-79
2022/07/28 05:22:10;;;;;;;4.93;4.20;;;;;;;18.90;61.40;156220.53;5055596;28;20446;-85
2022/07/28 05:25:01;;;;;;;5.20;4.17;;;;;;;19.09;60.58;156270.00;5055817;28;20445;-84
2022/07/28 05:27:48;;;;;;;5.13;4.53;;;;;;;19.12;60.50;156276.53;5055922;28;20445;-76
2022/07/28 05:30:21;;;;;;;4.93;4.40;;;;;;;19.11;60.22;156273.94;5072980;28;20481;-76
2022/07/28 05:33:14;;;;;;;4.90;4.50;;;;;;;19.26;60.22;156314.34;5055274;28;20863;-76
2022/07/28 05:35:41;;;;;;;4.77;4.37;;;;;;;19.24;60.63;156309.13;5035436;28;20449;-84
2022/07/28 05:38:08;;;;;;;4.77;4.33;;;;;;;19.10;60.80;156271.31;5053893;28;20558;-85
2022/07/28 05:40:36;;;;;;;4.93;4.20;;;;;;;19.16;61.28;156288.28;5085199;28;20444;-85
2022/07/28 05:43:03;;;;;;;4.80;4.30;;;;;;;19.33;60.52;156332.56;5061005;28;20612;-85
2022/07/28 05:45:30;;;;;;;4.67;4.27;;;;;;;19.61;59.86;156404.34;5073918;28;20481;-85
2022/07/28 05:47:56;;;;;;;6.10;4.87;;;;;;;19.58;59.47;156396.50;5073730;28;20533;-85
2022/07/28 05:50:24;;;;;;;5.07;4.47;;;;;;;19.46;60.02;156365.19;5075363;28;20521;-85
2022/07/28 05:52:50;;;;;;;4.60;4.20;;;;;;;19.37;60.54;156343.06;5075766;28;20438;-84
2022/07/28 05:55:17;;;;;;;5.37;4.87;;;;;;;19.35;60.49;156337.78;5074877;28;20480;-85
2022/07/28 05:57:45;;;;;;;4.97;4.57;;;;;;;19.35;61.19;156337.78;5076700;28;20467;-84
2022/07/28 06:00:15;;;;;;;5.37;4.83;;;;;;;19.56;60.64;156391.31;5094805;28;20560;-85
2022/07/28 06:02:44;;;;;;;5.03;4.63;;;;;;;19.83;59.51;156460.41;5095985;28;20874;-85
2022/07/28 06:05:11;;;;;;;5.23;4.73;;;;;;;19.88;59.61;156473.44;5096441;28;20439;-85
2022/07/28 06:07:38;;;;;;;10.70;5.10;;;;;;;19.83;59.60;156460.41;5095666;28;20445;-85
2022/07/28 06:10:05;;;;;;;5.80;5.00;;;;;;;19.90;60.03;156478.66;5094231;28;20454;-85
2022/07/28 06:12:32;;;;;;;5.30;4.80;;;;;;;19.75;60.00;156440.81;5094564;28;20478;-85
2022/07/28 06:15:03;;;;;;;5.73;5.23;;;;;;;20.13;59.06;156538.63;5094814;28;20433;-86
2022/07/28 06:17:30;;;;;;;7.77;5.53;;;;;;;20.26;58.69;156571.25;5092008;28;20448;-85
2022/07/28 06:19:57;;;;;;;5.40;4.90;;;;;;;20.42;59.04;156614.31;5075999;28;20525;-85
2022/07/28 06:22:24;;;;;;;7.33;5.10;;;;;;;20.81;57.59;156713.47;5074183;28;20470;-85
2022/07/28 06:24:50;;;;;;;6.90;4.93;;;;;;;20.97;56.99;156755.25;5107527;28;20461;-85
2022/07/28 06:27:17;;;;;;;5.20;4.73;;;;;;;21.15;57.08;156802.25;5093059;28;20441;-85
2022/07/28 06:29:44;;;;;;;5.87;5.37;;;;;;;21.06;57.04;156778.69;5075823;28;20484;-85
2022/07/28 06:32:12;;;;;;;7.27;6.20;;;;;;;21.14;56.78;156800.94;5091016;28;20469;-85
2022/07/28 06:34:38;;;;;;;6.17;5.60;;;;;;;21.29;56.64;156837.50;5075099;28;20500;-85
2022/07/28 06:37:05;;;;;;;5.90;5.30;;;;;;;21.51;55.81;156894.91;5101069;28;20803;-84
2022/07/28 06:39:32;;;;;;;6.57;6.03;;;;;;;21.48;55.76;156888.38;5111025;28;20947;-84
2022/07/28 06:41:59;;;;;;;6.80;6.10;;;;;;;21.58;55.48;156914.47;5094380;28;20444;-84
2022/07/28 06:44:25;;;;;;;6.57;5.90;;;;;;;21.72;56.08;156951.06;5094112;28;21085;-85
2022/07/28 06:46:52;;;;;;;6.47;5.87;;;;;;;22.24;54.60;157085.59;5093451;28;20939;-85
2022/07/28 06:49:20;;;;;;;6.33;5.73;;;;;;;22.34;54.47;157110.44;5110575;28;20465;-84
2022/07/28 06:51:47;;;;;;;7.60;6.90;;;;;;;22.28;53.91;157096.06;5095052;28;20435;-85
2022/07/28 06:54:14;;;;;;;6.60;6.00;;;;;;;22.31;54.44;157103.91;5085439;28;20500;-85
2022/07/28 06:56:41;;;;;;;5.70;5.20;;;;;;;22.38;54.65;157120.84;5110309;28;20457;-85
2022/07/28 06:59:08;;;;;;;6.70;6.20;;;;;;;22.93;53.81;157263.28;5095131;28;20475;-85
2022/07/28 07:01:34;;;;;;;7.40;6.60;;;;;;;22.93;54.15;157263.28;5110561;28;20445;-85
2022/07/28 07:04:01;;;;;;;7.40;6.00;;;;;;;23.27;53.60;157350.88;5110701;28;20476;-85
2022/07/28 07:06:30;;;;;;;7.70;7.00;;;;;;;23.61;52.75;157439.81;5093184;28;20455;-85
2022/07/28 07:08:56;;;;;;;7.50;6.73;;;;;;;23.73;52.02;157471.16;5098508;28;20444;-84
2022/07/28 07:11:23;;;;;;;10.30;7.50;;;;;;;23.65;52.29;157450.25;5110632;28;20451;-85
2022/07/28 07:13:51;;;;;;;7.50;6.90;;;;;;;23.50;52.07;157412.34;5092630;28;20441;-85
2022/07/28 07:16:18;;;;;;;6.93;6.40;;;;;;;23.59;52.29;157434.53;5076288;28;20911;-85
2022/07/28 07:18:47;;;;;;;10.20;6.80;;;;;;;23.62;53.10;157442.38;5089844;28;20548;-85
2022/07/28 07:21:13;;;;;;;7.40;6.70;;;;;;;23.54;52.42;157421.47;5081826;28;20437;-84
2022/07/28 07:23:41;;;;;;;8.07;6.97;;;;;;;23.49;52.78;157409.72;5094446;28;20481;-85
2022/07/28 07:26:08;;;;;;;6.50;6.00;;;;;;;23.64;53.35;157448.91;5093595;28;20449;-85
2022/07/28 07:28:35;;;;;;;9.03;6.77;;;;;;;23.72;52.81;157468.56;5093060;28;20441;-84
2022/07/28 07:31:02;;;;;;;6.77;6.20;;;;;;;23.99;51.70;157537.81;5109179;28;20940;-85
2022/07/28 07:33:28;;;;;;;7.33;6.70;;;;;;;23.69;53.23;157460.72;5109915;28;20472;-85
2022/07/28 07:35:55;;;;;;;7.87;7.27;;;;;;;24.05;52.34;157554.84;5074363;28;20430;-85
2022/07/28 07:38:22;;;;;;;7.70;7.00;;;;;;;24.57;51.45;157688.31;5072105;28;20434;-85
2022/07/28 07:40:50;;;;;;;7.70;7.10;;;;;;;24.94;49.67;157783.84;5084577;28;20440;-85
2022/07/28 07:43:17;;;;;;;8.13;7.33;;;;;;;24.84;50.22;157758.97;5093859;28;20575;-85
2022/07/28 07:45:44;;;;;;;7.30;6.70;;;;;;;24.88;49.98;157769.47;5081730;28;20497;-85
2022/07/28 07:48:11;;;;;;;7.93;7.13;;;;;;;25.00;50.26;157799.53;5072477;28;20477;-85
2022/07/28 07:50:38;;;;;;;7.50;6.80;;;;;;;25.22;49.63;157858.44;5075238;28;20464;-85
2022/07/28 07:53:05;;;;;;;8.10;7.30;;;;;;;25.38;50.15;157899.00;5073625;28;20499;-85
2022/07/28 07:55:31;;;;;;;8.80;7.83;;;;;;;25.72;48.94;157986.72;5092862;28;20434;-85
2022/07/28 07:58:00;;;;;;;7.67;6.77;;;;;;;25.84;48.30;158018.19;5092362;28;20528;-85
2022/07/28 08:00:26;;;;;;;7.40;6.80;;;;;;;25.93;48.50;158041.72;5093248;28;20433;-85
2022/07/28 08:02:53;;;;;;;8.37;7.43;;;;;;;26.01;48.05;158062.66;5092929;28;20540;-85
2022/07/28 08:05:20;;;;;;;7.80;7.20;;;;;;;25.77;48.18;157999.81;5108642;28;20884;-85
2022/07/28 08:07:46;;;;;;;8.03;7.27;;;;;;;25.69;49.11;157978.88;5084341;28;20430;-85
2022/07/28 08:10:23;;;;;;;9.30;8.50;;;;;;;25.57;48.90;157948.78;5072401;28;20438;-86
2022/07/28 08:12:49;;;;;;;8.73;7.93;;;;;;;26.01;48.49;158062.66;5084257;28;20467;-77
2022/07/28 08:15:17;;;;;;;7.30;6.70;;;;;;;26.08;48.39;158079.72;5089810;28;20532;-78
2022/07/28 08:17:44;;;;;;;7.63;7.03;;;;;;;25.85;47.92;158020.78;5088611;28;20456;-78
2022/07/28 08:20:20;;;;;;;8.57;7.67;;;;;;;25.68;49.31;157976.28;5091448;28;20583;-78
2022/07/28 08:22:48;;;;;;;8.87;8.17;;;;;;;25.80;48.75;158007.69;5093328;28;20444;-86
2022/07/28 08:25:15;;;;;;;8.77;7.97;;;;;;;25.88;47.97;158029.94;5093052;28;20455;-78
2022/07/28 08:27:41;;;;;;;7.83;7.23;;;;;;;25.41;49.76;157908.19;5090576;28;20435;-78
2022/07/28 08:30:09;;;;;;;9.53;8.70;;;;;;;25.28;49.95;157874.09;5092776;28;20785;-78
2022/07/28 08:32:37;;;;;;;8.60;7.90;;;;;;;25.55;50.18;157943.53;5091501;28;20473;-78
2022/07/28 08:35:05;;;;;;;8.97;8.17;;;;;;;25.83;48.69;158016.88;5088344;28;20792;-78
2022/07/28 08:37:31;;;;;;;7.87;7.23;;;;;;;26.13;49.01;158094.16;5058358;28;20629;-78
2022/07/28 08:39:58;;;;;;;8.57;7.87;;;;;;;26.16;48.08;158100.72;5091408;28;20534;-78
2022/07/28 08:42:31;;;;;;;8.70;8.00;;;;;;;26.19;49.43;158109.84;5089288;28;20448;-78
2022/07/28 08:45:02;;;;;;;9.23;8.43;;;;;;;26.38;48.54;158158.31;5091025;28;20473;-77
2022/07/28 08:47:31;;;;;;;9.17;8.40;;;;;;;26.20;48.15;158112.47;5091636;28;20436;-77
2022/07/28 08:49:59;;;;;;;8.57;7.87;;;;;;;26.17;48.59;158104.63;5087419;28;21003;-78
2022/07/28 08:52:29;;;;;;;8.83;8.03;;;;;;;26.08;48.90;158080.97;5091142;28;20445;-77
2022/07/28 08:54:57;;;;;;;8.50;7.80;;;;;;;26.42;48.48;158168.81;5091156;28;20456;-78
2022/07/28 08:57:27;;;;;;;8.20;7.50;;;;;;;26.64;48.62;158226.41;5089125;28;20552;-78
2022/07/28 08:59:53;;;;;;;9.10;8.40;;;;;;;27.22;46.84;158377.09;5090803;28;20476;-78
2022/07/28 09:02:20;;;;;;;9.03;8.23;;;;;;;26.89;47.02;158291.97;5105615;28;20457;-78
2022/07/28 09:04:47;;;;;;;9.77;8.90;;;;;;;26.59;48.08;158214.63;5090978;28;20468;-78
2022/07/28 09:07:16;;;;;;;8.57;7.87;;;;;;;26.55;48.90;158204.19;5091600;28;20532;-78
2022/07/28 09:09:42;;;;;;;8.67;7.97;;;;;;;26.56;48.95;158206.75;5084991;28;20484;-78
2022/07/28 09:12:09;;;;;;;8.70;7.90;;;;;;;26.86;48.15;158282.78;5080402;28;20494;-78
2022/07/28 09:14:36;;;;;;;9.77;8.77;;;;;;;26.63;48.55;158225.09;5090116;28;20521;-78
2022/07/28 09:17:11;;;;;;;8.80;8.00;;;;;;;26.67;48.50;158232.94;5090078;28;20435;-78
2022/07/28 09:19:38;;;;;;;9.13;8.40;;;;;;;26.27;48.81;158130.81;5086467;28;20816;-78
2022/07/28 09:22:06;;;;;;;9.23;8.53;;;;;;;26.46;49.81;158179.25;5089933;28;20960;-78
2022/07/28 09:24:36;;;;;;;9.70;8.70;;;;;;;26.60;48.93;158217.25;5090543;28;20564;-78
2022/07/28 09:27:06;;;;;;;9.27;8.57;;;;;;;26.43;49.17;158171.38;5088706;28;20448;-78
2022/07/28 09:29:33;;;;;;;9.90;9.10;;;;;;;26.34;49.24;158149.16;5105005;28;20946;-77
2022/07/28 09:32:00;;;;;;;9.27;8.57;;;;;;;26.31;49.24;158139.97;5089390;28;20476;-77
2022/07/28 09:34:26;;;;;;;9.77;8.97;;;;;;;26.32;49.61;158143.88;5090164;28;20550;-77
2022/07/28 09:36:53;;;;;;;8.60;8.00;;;;;;;26.29;50.15;158136.03;5088535;28;20452;-78
2022/07/28 09:39:35;;;;;;;8.77;8.07;;;;;;;26.12;50.44;158090.16;5086790;28;20467;-78
2022/07/28 09:42:02;;;;;;;9.30;8.50;;;;;;;26.86;49.64;158282.78;5074627;28;20437;-78
2022/07/28 09:44:29;;;;;;;9.53;8.73;;;;;;;27.26;48.39;158387.59;5090372;28;20464;-78
2022/07/28 09:46:56;;;;;;;9.13;8.40;;;;;;;27.28;47.58;158392.84;5088392;28;20449;-78
2022/07/28 09:49:40;;;;;;;8.90;8.20;;;;;;;27.00;48.35;158319.47;5086853;28;20511;-78
2022/07/28 09:52:06;;;;;;;8.80;8.03;;;;;;;27.13;48.15;158353.53;5090471;28;20805;-78
2022/07/28 09:54:34;;;;;;;9.23;8.50;;;;;;;27.25;47.60;158384.97;5094597;28;20488;-80
2022/07/28 09:57:02;;;;;;;10.13;9.03;;;;;;;26.74;48.17;158251.31;5110623;28;20447;-78
2022/07/28 09:59:40;;;;;;;8.83;8.03;;;;;;;26.39;49.28;158162.25;5090147;28;20580;-77
2022/07/28 10:02:07;;;;;;;9.07;8.30;;;;;;;26.18;50.04;158105.94;5095133;28;20449;-77
2022/07/28 10:04:35;;;;;;;9.63;8.83;;;;;;;26.28;49.72;158133.44;5093306;28;20473;-78
2022/07/28 10:07:04;;;;;;;9.60;8.90;;;;;;;26.50;49.86;158189.75;5109395;28;20537;-78
2022/07/28 10:09:31;;;;;;;8.83;8.13;;;;;;;26.76;49.35;158257.88;5076329;28;20806;-78
2022/07/28 10:14:52;;;;;;;9.27;8.47;;;;;;;26.86;48.95;158284.09;5103960;27;20540;-76
2022/07/28 10:17:32;;;;;;;8.70;7.90;;;;;;;26.69;49.08;158238.22;5115828;27;20480;-76
2022/07/28 10:20:00;;;;;;;8.33;7.63;;;;;;;26.61;49.22;158219.84;5116432;28;20583;-76
2022/07/28 10:22:28;;;;;;;8.60;7.90;;;;;;;26.66;49.32;158231.69;5088808;28;20429;-76
2022/07/28 10:24:56;;;;;;;9.73;8.83;;;;;;;26.67;48.94;158232.94;5100918;28;20418;-76
2022/07/28 10:27:24;;;;;;;9.77;9.03;;;;;;;26.54;49.00;158201.53;5120025;28;20446;-76
2022/07/28 10:29:57;;;;;;;11.10;9.13;;;;;;;26.23;49.61;158120.34;5121513;28;20444;-78
2022/07/28 10:32:24;;;;;;;8.87;8.17;;;;;;;26.23;50.27;158119.03;5122054;28;20429;-76
2022/07/28 10:34:54;;;;;;;8.87;8.20;;;;;;;26.56;50.06;158206.75;5107271;28;20524;-76
2022/07/28 10:37:24;;;;;;;8.80;8.10;;;;;;;26.60;49.14;158215.94;5081047;28;20474;-76
2022/07/28 10:39:58;;;;;;;9.03;7.90;;;;;;;26.82;49.01;158272.31;5086420;28;20494;-76
2022/07/28 10:42:24;;;;;;;9.53;8.83;;;;;;;26.23;49.81;158120.34;5085948;28;20480;-76
2022/07/28 10:44:53;;;;;;;9.57;8.77;;;;;;;25.99;50.26;158057.44;5120915;28;20468;-76
2022/07/28 10:47:20;;;;;;;8.80;8.10;;;;;;;26.26;49.71;158126.88;5087607;28;21227;-76
2022/07/28 10:49:47;;;;;;;8.90;8.00;;;;;;;26.22;50.15;158116.38;5120156;28;20507;-78
2022/07/28 10:52:16;;;;;;;9.77;9.07;;;;;;;26.20;50.46;158112.47;5120355;28;20913;-78
2022/07/28 10:54:47;;;;;;;9.10;8.30;;;;;;;26.17;50.65;158104.63;5120890;28;20519;-76
2022/07/28 10:57:14;;;;;;;8.90;8.20;;;;;;;26.30;49.96;158137.34;5087290;28;20417;-76
2022/07/28 11:00:08;;;;;;;9.33;8.40;;;;;;;26.58;49.58;158212.00;5082245;28;20559;-76
2022/07/28 11:02:52;;;;;;;8.67;7.97;;;;;;;26.39;48.35;158162.25;5072422;28;20456;-76
2022/07/28 11:05:29;;;;;;;8.93;8.13;;;;;;;26.55;49.43;158202.84;5086848;28;20456;-76
2022/07/28 11:08:01;;;;;;;8.57;7.87;;;;;;;26.83;48.94;158274.91;5087479;28;20820;-76
2022/07/28 11:10:29;;;;;;;8.50;7.80;;;;;;;26.61;49.60;158219.84;5087059;28;20535;-76
2022/07/28 11:12:59;;;;;;;10.20;7.97;;;;;;;26.34;49.02;158147.84;5085562;28;20472;-76
2022/07/28 11:15:32;;;;;;;8.30;7.60;;;;;;;26.29;49.44;158134.75;5078485;28;20430;-76
2022/07/28 11:18:00;;;;;;;8.20;7.50;;;;;;;26.48;48.32;158185.81;5101080;28;20457;-76
2022/07/28 11:21:05;;;;;;;8.87;7.47;;;;;;;26.34;49.08;158149.16;5074238;28;20503;-76
2022/07/28 11:23:40;;;;;;;8.67;7.97;;;;;;;26.31;49.08;158139.97;5120960;28;20837;-76
2022/07/28 11:26:29;;;;;;;8.27;7.53;;;;;;;26.24;49.14;158122.94;5075176;28;20444;-78
2022/07/28 11:29:16;;;;;;;8.50;7.80;;;;;;;26.18;49.45;158107.25;5074034;28;20435;-75
2022/07/28 11:32:03;;;;;;;9.30;8.33;;;;;;;26.46;48.59;158180.56;5104130;28;20568;-76
2022/07/28 11:35:02;;;;;;;8.37;7.50;;;;;;;26.45;49.57;158177.94;5106868;28;20540;-78
2022/07/28 11:37:29;;;;;;;8.20;7.50;;;;;;;26.39;48.67;158160.94;5106727;28;20431;-78
2022/07/28 11:40:32;;;;;;;8.80;7.47;;;;;;;26.48;48.24;158185.81;5070384;28;20446;-78